createdAt,value
2018-04-02T00:00:34.285Z,15.70
2018-04-02T00:01:34.305Z,15.00
2018-04-02T00:02:34.317Z,15.60
2018-04-02T00:03:34.331Z,15.20
2018-04-02T00:04:34.350Z,15.00
2018-04-02T00:05:34.391Z,14.00
2018-04-02T00:06:34.380Z,14.30
2018-04-02T00:07:34.404Z,14.30
2018-04-02T00:08:34.411Z,15.00
2018-04-02T00:09:34.432Z,14.10
2018-04-02T00:10:34.445Z,14.20
2018-04-02T00:11:34.463Z,14.50
2018-04-02T00:12:34.475Z,14.30
2018-04-02T00:13:34.490Z,13.70
2018-04-02T00:14:34.510Z,14.30
2018-04-02T00:15:34.523Z,14.70
2018-04-02T00:16:34.540Z,13.90
2018-04-02T00:17:34.563Z,13.30
2018-04-02T00:18:34.576Z,13.40
2018-04-02T00:19:34.590Z,14.00
2018-04-02T00:20:34.604Z,13.90
2018-04-02T00:21:34.625Z,13.40
2018-04-02T00:22:34.645Z,13.20
2018-04-02T00:23:34.654Z,13.90
2018-04-02T00:24:34.670Z,13.70
2018-04-02T00:25:34.690Z,12.70
2018-04-02T00:26:34.704Z,11.90
2018-04-02T00:27:34.727Z,12.40
2018-04-02T00:28:34.740Z,12.40
2018-04-02T00:29:34.749Z,12.50
2018-04-02T00:30:34.770Z,12.10
2018-04-02T00:31:34.789Z,13.10
2018-04-02T00:32:34.800Z,12.00
2018-04-02T00:33:34.819Z,12.10
2018-04-02T00:34:34.834Z,12.10
2018-04-02T00:35:34.848Z,11.60
2018-04-02T00:36:34.867Z,12.20
2018-04-02T00:37:34.883Z,12.50
2018-04-02T00:38:34.898Z,11.50
2018-04-02T00:39:34.914Z,11.60
2018-04-02T00:40:34.931Z,12.00
2018-04-02T00:41:34.944Z,11.40
2018-04-02T00:42:34.963Z,11.10
2018-04-02T00:43:35.027Z,11.20
2018-04-02T00:44:34.993Z,11.00
2018-04-02T00:45:35.048Z,11.10
2018-04-02T00:46:35.032Z,10.70
2018-04-02T00:47:35.038Z,10.70
2018-04-02T00:48:35.062Z,10.60
2018-04-02T00:49:35.080Z,11.50
2018-04-02T00:50:35.088Z,10.80
2018-04-02T00:51:35.108Z,12.30
2018-04-02T00:52:35.121Z,10.90
2018-04-02T00:53:35.138Z,11.40
2018-04-02T00:54:35.158Z,11.40
2018-04-02T00:55:35.178Z,11.30
2018-04-02T00:56:35.188Z,11.10
2018-04-02T00:57:35.202Z,11.40
2018-04-02T00:58:35.222Z,11.20
2018-04-02T00:59:35.238Z,11.60
2018-04-02T01:00:35.252Z,11.30
2018-04-02T01:01:35.271Z,11.50
2018-04-02T01:02:35.285Z,12.00
2018-04-02T01:03:35.301Z,11.90
2018-04-02T01:04:35.319Z,12.20
2018-04-02T01:05:35.332Z,11.80
2018-04-02T01:06:35.371Z,12.30
2018-04-02T01:07:35.362Z,12.10
2018-04-02T01:08:35.382Z,12.50
2018-04-02T01:09:35.397Z,11.60
2018-04-02T01:10:35.412Z,12.10
2018-04-02T01:11:35.427Z,11.90
2018-04-02T01:12:35.447Z,12.00
2018-04-02T01:13:35.462Z,12.00
2018-04-02T01:14:35.477Z,11.70
2018-04-02T01:15:35.496Z,12.10
2018-04-02T01:16:35.504Z,12.00
2018-04-02T01:17:35.527Z,12.20
2018-04-02T01:18:35.544Z,12.40
2018-04-02T01:19:35.551Z,12.30
2018-04-02T01:20:35.585Z,12.60
2018-04-02T01:21:35.587Z,11.70
2018-04-02T01:22:35.606Z,12.00
2018-04-02T01:23:35.624Z,11.90
2018-04-02T01:24:35.641Z,11.80
2018-04-02T01:25:35.651Z,11.80
2018-04-02T01:26:35.668Z,11.50
2018-04-02T01:27:35.686Z,11.80
2018-04-02T01:28:35.700Z,11.70
2018-04-02T01:29:35.716Z,12.20
2018-04-02T01:30:35.733Z,12.00
2018-04-02T01:31:35.747Z,11.40
2018-04-02T01:32:35.776Z,11.70
2018-04-02T01:33:35.783Z,11.90
2018-04-02T01:34:35.796Z,12.20
2018-04-02T01:35:35.810Z,11.60
2018-04-02T01:36:35.831Z,12.30
2018-04-02T01:37:35.847Z,11.90
2018-04-02T01:38:35.869Z,11.70
2018-04-02T01:39:35.876Z,12.10
2018-04-02T01:40:35.898Z,11.40
2018-04-02T01:41:35.911Z,11.90
2018-04-02T01:42:35.926Z,11.70
2018-04-02T01:43:35.940Z,11.90
2018-04-02T01:44:35.954Z,11.30
2018-04-02T01:45:35.979Z,11.80
2018-04-02T01:46:35.991Z,12.40
2018-04-02T01:47:36.005Z,11.60
2018-04-02T01:48:36.020Z,11.70
2018-04-02T01:49:36.045Z,12.40
2018-04-02T01:50:36.055Z,12.00
2018-04-02T01:51:36.071Z,10.50
2018-04-02T01:52:36.090Z,11.30
2018-04-02T01:53:36.100Z,11.20
2018-04-02T01:54:36.119Z,10.80
2018-04-02T01:55:36.133Z,11.90
2018-04-02T01:56:36.150Z,11.20
2018-04-02T01:57:36.172Z,11.40
2018-04-02T01:58:36.193Z,11.10
2018-04-02T01:59:36.204Z,11.30
2018-04-02T02:00:36.215Z,10.80
2018-04-02T02:01:36.228Z,11.20
2018-04-02T02:02:36.252Z,10.60
2018-04-02T02:03:36.264Z,11.80
2018-04-02T02:04:36.278Z,10.20
2018-04-02T02:05:36.302Z,10.30
2018-04-02T02:06:36.314Z,10.70
2018-04-02T02:07:36.324Z,10.70
2018-04-02T02:08:36.343Z,9.90
2018-04-02T02:09:36.358Z,10.40
2018-04-02T02:10:36.374Z,10.50
2018-04-02T02:11:36.391Z,10.80
2018-04-02T02:12:36.408Z,10.20
2018-04-02T02:13:36.423Z,9.90
2018-04-02T02:14:36.438Z,9.40
2018-04-02T02:15:36.463Z,10.20
2018-04-02T02:16:36.478Z,9.80
2018-04-02T02:17:36.487Z,10.20
2018-04-02T02:18:36.503Z,9.50
2018-04-02T02:19:36.518Z,10.10
2018-04-02T02:20:36.534Z,10.00
2018-04-02T02:21:36.556Z,9.40
2018-04-02T02:22:36.571Z,9.60
2018-04-02T02:23:36.582Z,9.00
2018-04-02T02:24:36.601Z,9.80
2018-04-02T02:25:36.620Z,9.70
2018-04-02T02:26:36.634Z,9.60
2018-04-02T02:27:36.647Z,9.10
2018-04-02T02:28:36.662Z,9.30
2018-04-02T02:29:36.677Z,9.00
2018-04-02T02:30:36.701Z,9.10
2018-04-02T02:31:36.716Z,9.50
2018-04-02T02:32:36.731Z,9.00
2018-04-02T02:33:36.753Z,9.00
2018-04-02T02:34:36.756Z,9.00
2018-04-02T02:35:36.776Z,9.30
2018-04-02T02:36:36.801Z,9.80
2018-04-02T02:37:36.816Z,9.90
2018-04-02T02:38:36.828Z,10.00
2018-04-02T02:39:36.842Z,9.40
2018-04-02T02:40:36.858Z,9.50
2018-04-02T02:41:36.872Z,10.50
2018-04-02T02:42:36.886Z,10.30
2018-04-02T02:43:36.902Z,10.40
2018-04-02T02:44:36.921Z,10.40
2018-04-02T02:45:36.940Z,11.20
2018-04-02T02:46:36.952Z,10.40
2018-04-02T02:47:36.966Z,10.60
2018-04-02T02:48:36.984Z,10.50
2018-04-02T02:49:36.996Z,10.90
2018-04-02T02:50:37.019Z,10.60
2018-04-02T02:51:37.041Z,10.70
2018-04-02T02:52:37.046Z,10.50
2018-04-02T02:53:37.060Z,10.20
2018-04-02T02:54:37.081Z,10.90
2018-04-02T02:55:37.092Z,10.50
2018-04-02T02:56:37.111Z,10.90
2018-04-02T02:57:37.126Z,10.40
2018-04-02T02:58:37.141Z,10.30
2018-04-02T02:59:37.156Z,10.50
2018-04-02T03:00:37.170Z,10.30
2018-04-02T03:01:37.196Z,9.80
2018-04-02T03:02:37.211Z,10.00
2018-04-02T03:03:37.224Z,10.40
2018-04-02T03:04:37.240Z,10.80
2018-04-02T03:05:37.256Z,10.60
2018-04-02T03:06:37.271Z,9.90
2018-04-02T03:07:37.285Z,10.70
2018-04-02T03:08:37.304Z,10.10
2018-04-02T03:09:37.316Z,10.10
2018-04-02T03:10:37.338Z,10.10
2018-04-02T03:11:37.353Z,10.40
2018-04-02T03:12:37.370Z,9.70
2018-04-02T03:13:37.383Z,9.90
2018-04-02T03:14:37.399Z,9.50
2018-04-02T03:15:37.416Z,9.20
2018-04-02T03:16:37.433Z,9.30
2018-04-02T03:17:37.444Z,10.00
2018-04-02T03:18:37.463Z,10.00
2018-04-02T03:19:37.487Z,10.30
2018-04-02T03:20:37.491Z,9.90
2018-04-02T03:21:37.513Z,10.00
2018-04-02T03:22:37.528Z,10.10
2018-04-02T03:23:37.543Z,9.80
2018-04-02T03:24:37.560Z,10.40
2018-04-02T03:25:37.576Z,9.90
2018-04-02T03:26:37.588Z,10.20
2018-04-02T03:27:37.611Z,9.50
2018-04-02T03:28:37.622Z,9.90
2018-04-02T03:29:37.643Z,10.40
2018-04-02T03:30:37.658Z,10.20
2018-04-02T03:31:37.669Z,10.60
2018-04-02T03:32:37.687Z,10.70
2018-04-02T03:33:37.703Z,10.80
2018-04-02T03:34:37.722Z,10.30
2018-04-02T03:35:37.730Z,10.40
2018-04-02T03:36:37.747Z,10.10
2018-04-02T03:37:37.767Z,10.00
2018-04-02T03:38:37.782Z,9.80
2018-04-02T03:39:37.797Z,9.90
2018-04-02T03:40:37.816Z,10.20
2018-04-02T03:41:37.832Z,10.20
2018-04-02T03:42:37.842Z,10.20
2018-04-02T03:43:37.861Z,11.00
2018-04-02T03:44:37.880Z,10.00
2018-04-02T03:45:37.895Z,9.90
2018-04-02T03:46:37.908Z,10.10
2018-04-02T03:47:37.922Z,10.70
2018-04-02T03:48:37.938Z,9.90
2018-04-02T03:49:37.961Z,10.20
2018-04-02T03:50:37.980Z,10.60
2018-04-02T03:51:37.986Z,10.60
2018-04-02T03:52:38.001Z,10.00
2018-04-02T03:53:38.022Z,10.10
2018-04-02T03:54:38.041Z,10.60
2018-04-02T03:55:38.051Z,10.40
2018-04-02T03:56:38.068Z,10.70
2018-04-02T03:57:38.091Z,10.60
2018-04-02T03:58:38.096Z,9.70
2018-04-02T03:59:38.123Z,11.00
2018-04-02T04:00:38.153Z,10.80
2018-04-02T04:01:38.153Z,10.40
2018-04-02T04:02:38.169Z,9.50
2018-04-02T04:03:38.183Z,10.20
2018-04-02T04:04:38.198Z,9.90
2018-04-02T04:05:38.214Z,10.10
2018-04-02T04:06:38.227Z,9.80
2018-04-02T04:07:38.241Z,9.90
2018-04-02T04:08:38.259Z,9.40
2018-04-02T04:09:38.278Z,9.50
2018-04-02T04:10:38.294Z,9.90
2018-04-02T04:11:38.307Z,9.90
2018-04-02T04:12:38.326Z,10.30
2018-04-02T04:13:38.339Z,10.60
2018-04-02T04:14:38.356Z,9.60
2018-04-02T04:15:38.372Z,9.50
2018-04-02T04:16:38.389Z,9.90
2018-04-02T04:17:38.411Z,10.20
2018-04-02T04:18:38.416Z,10.10
2018-04-02T04:19:38.436Z,9.90
2018-04-02T04:20:38.445Z,10.30
2018-04-02T04:21:38.467Z,10.10
2018-04-02T04:22:38.484Z,10.30
2018-04-02T04:23:38.497Z,10.10
2018-04-02T04:24:38.512Z,10.40
2018-04-02T04:25:38.529Z,10.40
2018-04-02T04:26:38.542Z,9.80
2018-04-02T04:27:38.565Z,10.10
2018-04-02T04:28:38.574Z,10.30
2018-04-02T04:29:38.589Z,10.50
2018-04-02T04:30:38.606Z,10.80
2018-04-02T04:31:38.630Z,10.30
2018-04-02T04:32:38.644Z,10.60
2018-04-02T04:33:38.658Z,10.40
2018-04-02T04:34:38.674Z,9.50
2018-04-02T04:35:38.684Z,10.10
2018-04-02T04:36:38.705Z,10.00
2018-04-02T04:37:38.719Z,10.10
2018-04-02T04:38:38.738Z,10.70
2018-04-02T04:39:38.762Z,10.70
2018-04-02T04:40:38.764Z,10.90
2018-04-02T04:41:38.784Z,10.90
2018-04-02T04:42:38.795Z,10.50
2018-04-02T04:43:38.814Z,11.10
2018-04-02T04:44:38.829Z,11.60
2018-04-02T04:45:38.845Z,11.40
2018-04-02T04:46:38.859Z,11.30
2018-04-02T04:47:38.873Z,11.50
2018-04-02T04:48:38.892Z,12.60
2018-04-02T04:49:38.909Z,11.50
2018-04-02T04:50:38.923Z,11.40
2018-04-02T04:51:38.943Z,10.90
2018-04-02T04:52:38.962Z,10.80
2018-04-02T04:53:38.983Z,11.30
2018-04-02T04:54:38.993Z,11.00
2018-04-02T04:55:39.007Z,11.10
2018-04-02T04:56:39.028Z,11.20
2018-04-02T04:57:39.052Z,11.80
2018-04-02T04:58:39.056Z,11.60
2018-04-02T04:59:39.068Z,12.30
2018-04-02T05:00:39.088Z,11.50
2018-04-02T05:01:39.111Z,11.80
2018-04-02T05:02:39.123Z,11.60
2018-04-02T05:03:39.141Z,11.80
2018-04-02T05:04:39.149Z,12.30
2018-04-02T05:05:39.161Z,12.60
2018-04-02T05:06:39.183Z,12.90
2018-04-02T05:07:39.198Z,12.70
2018-04-02T05:08:39.213Z,13.40
2018-04-02T05:09:39.228Z,11.80
2018-04-02T05:10:39.244Z,12.00
2018-04-02T05:11:39.262Z,12.00
2018-04-02T05:12:39.277Z,12.90
2018-04-02T05:13:39.296Z,13.20
2018-04-02T05:14:39.311Z,12.20
2018-04-02T05:15:39.330Z,12.70
2018-04-02T05:16:39.339Z,12.00
2018-04-02T05:17:39.380Z,12.20
2018-04-02T05:18:39.376Z,12.30
2018-04-02T05:19:39.392Z,11.80
2018-04-02T05:20:39.407Z,12.20
2018-04-02T05:21:39.423Z,12.60
2018-04-02T05:22:39.444Z,12.20
2018-04-02T05:23:39.453Z,12.70
2018-04-02T05:24:39.478Z,13.10
2018-04-02T05:25:39.486Z,12.60
2018-04-02T05:26:39.503Z,13.50
2018-04-02T05:27:39.522Z,13.40
2018-04-02T05:28:39.541Z,12.10
2018-04-02T05:29:39.552Z,12.70
2018-04-02T05:30:39.567Z,12.60
2018-04-02T05:31:39.586Z,12.80
2018-04-02T05:32:39.601Z,13.40
2018-04-02T05:33:39.626Z,12.90
2018-04-02T05:34:39.638Z,12.90
2018-04-02T05:35:39.649Z,13.00
2018-04-02T05:36:39.665Z,12.90
2018-04-02T05:37:39.682Z,12.80
2018-04-02T05:38:39.701Z,13.10
2018-04-02T05:39:39.767Z,14.10
2018-04-02T05:40:39.732Z,14.10
2018-04-02T05:41:39.751Z,12.90
2018-04-02T05:42:39.768Z,13.70
2018-04-02T05:43:39.786Z,13.40
2018-04-02T05:44:39.795Z,13.20
2018-04-02T05:45:39.814Z,12.30
2018-04-02T05:46:39.831Z,13.90
2018-04-02T05:47:39.845Z,14.50
2018-04-02T05:48:39.859Z,13.20
2018-04-02T05:49:39.879Z,13.70
2018-04-02T05:50:39.896Z,12.90
2018-04-02T05:51:39.914Z,14.20
2018-04-02T05:52:39.928Z,12.70
2018-04-02T05:53:39.940Z,14.40
2018-04-02T05:54:39.965Z,13.80
2018-04-02T05:55:39.974Z,15.10
2018-04-02T05:56:39.993Z,14.40
2018-04-02T05:57:40.010Z,13.80
2018-04-02T05:58:40.029Z,14.00
2018-04-02T05:59:40.042Z,14.10
2018-04-02T06:00:40.061Z,14.80
2018-04-02T06:01:40.070Z,13.70
2018-04-02T06:02:40.093Z,13.70
2018-04-02T06:03:40.103Z,14.50
2018-04-02T06:04:40.128Z,14.30
2018-04-02T06:05:40.142Z,13.60
2018-04-02T06:06:40.153Z,13.80
2018-04-02T06:07:40.169Z,13.70
2018-04-02T06:08:40.184Z,13.70
2018-04-02T06:09:40.201Z,13.50
2018-04-02T06:10:40.219Z,13.40
2018-04-02T06:11:40.256Z,13.30
2018-04-02T06:12:40.248Z,12.70
2018-04-02T06:13:40.265Z,13.20
2018-04-02T06:14:40.284Z,13.00
2018-04-02T06:15:40.299Z,14.00
2018-04-02T06:16:40.371Z,14.30
2018-04-02T06:17:40.337Z,13.30
2018-04-02T06:18:40.354Z,13.50
2018-04-02T06:19:40.372Z,13.00
2018-04-02T06:20:40.388Z,13.50
2018-04-02T06:21:40.402Z,13.20
2018-04-02T06:22:40.423Z,12.40
2018-04-02T06:23:40.430Z,12.60
2018-04-02T06:24:40.449Z,12.50
2018-04-02T06:25:40.468Z,13.10
2018-04-02T06:26:40.491Z,12.00
2018-04-02T06:27:40.501Z,12.40
2018-04-02T06:28:40.517Z,13.40
2018-04-02T06:29:40.533Z,12.90
2018-04-02T06:30:40.555Z,13.20
2018-04-02T06:31:40.630Z,12.30
2018-04-02T06:32:40.587Z,11.90
2018-04-02T06:33:40.601Z,11.80
2018-04-02T06:34:40.620Z,12.70
2018-04-02T06:35:40.633Z,11.40
2018-04-02T06:36:40.648Z,11.80
2018-04-02T06:37:40.671Z,12.50
2018-04-02T06:38:40.685Z,12.50
2018-04-02T06:39:40.700Z,12.40
2018-04-02T06:40:40.720Z,12.10
2018-04-02T06:41:40.741Z,12.20
2018-04-02T06:42:40.752Z,12.70
2018-04-02T06:43:40.774Z,11.50
2018-04-02T06:44:40.785Z,11.50
2018-04-02T06:45:40.805Z,12.70
2018-04-02T06:46:40.821Z,13.50
2018-04-02T06:47:40.833Z,13.30
2018-04-02T06:48:40.857Z,13.90
2018-04-02T06:49:40.868Z,14.00
2018-04-02T06:50:40.882Z,12.60
2018-04-02T06:51:40.908Z,13.10
2018-04-02T06:52:40.921Z,12.00
2018-04-02T06:53:40.937Z,12.50
2018-04-02T06:54:40.955Z,11.80
2018-04-02T06:55:40.971Z,12.10
2018-04-02T06:56:40.986Z,12.10
2018-04-02T06:57:41.001Z,11.80
2018-04-02T06:58:41.019Z,12.40
2018-04-02T06:59:41.040Z,11.60
2018-04-02T07:00:41.051Z,12.40
2018-04-02T07:01:41.070Z,12.30
2018-04-02T07:02:41.087Z,12.80
2018-04-02T07:03:41.110Z,12.60
2018-04-02T07:04:41.120Z,12.70
2018-04-02T07:05:41.144Z,12.50
2018-04-02T07:06:41.156Z,13.20
2018-04-02T07:07:41.171Z,13.70
2018-04-02T07:08:41.190Z,13.80
2018-04-02T07:09:41.206Z,13.60
2018-04-02T07:10:41.225Z,13.80
2018-04-02T07:11:41.260Z,13.20
2018-04-02T07:12:41.314Z,13.60
2018-04-02T07:13:41.276Z,14.50
2018-04-02T07:14:41.296Z,14.10
2018-04-02T07:15:41.310Z,13.80
2018-04-02T07:16:41.331Z,14.30
2018-04-02T07:17:41.351Z,14.30
2018-04-02T07:18:41.367Z,14.70
2018-04-02T07:19:41.387Z,14.30
2018-04-02T07:20:41.397Z,14.30
2018-04-02T07:21:41.416Z,14.70
2018-04-02T07:22:41.439Z,14.40
2018-04-02T07:23:41.454Z,15.00
2018-04-02T07:24:41.469Z,14.20
2018-04-02T07:25:41.493Z,14.30
2018-04-02T07:26:41.515Z,15.00
2018-04-02T07:27:41.519Z,14.50
2018-04-02T07:28:41.537Z,13.90
2018-04-02T07:29:41.555Z,14.00
2018-04-02T07:30:41.574Z,13.60
2018-04-02T07:31:41.592Z,14.10
2018-04-02T07:32:41.606Z,14.40
2018-04-02T07:33:41.623Z,14.40
2018-04-02T07:34:41.645Z,14.10
2018-04-02T07:35:41.662Z,14.40
2018-04-02T07:36:41.680Z,14.60
2018-04-02T07:37:41.697Z,14.50
2018-04-02T07:38:41.715Z,14.30
2018-04-02T07:39:41.731Z,14.60
2018-04-02T07:40:41.746Z,14.00
2018-04-02T07:41:41.771Z,14.50
2018-04-02T07:42:41.785Z,14.10
2018-04-02T07:43:41.804Z,13.70
2018-04-02T07:44:41.821Z,14.10
2018-04-02T07:45:41.837Z,13.70
2018-04-02T07:46:41.857Z,12.80
2018-04-02T07:47:41.875Z,12.90
2018-04-02T07:48:41.891Z,13.00
2018-04-02T07:49:41.904Z,13.50
2018-04-02T07:50:42.049Z,12.90
2018-04-02T07:51:41.942Z,13.10
2018-04-02T07:52:41.958Z,14.00
2018-04-02T07:53:41.984Z,13.80
2018-04-02T07:54:42.005Z,14.20
2018-04-02T07:55:42.024Z,13.60
2018-04-02T07:56:42.029Z,13.70
2018-04-02T07:57:42.043Z,13.30
2018-04-02T07:58:42.061Z,13.80
2018-04-02T07:59:42.089Z,14.00
2018-04-02T08:00:42.098Z,14.00
2018-04-02T08:01:42.120Z,13.40
2018-04-02T08:02:42.177Z,14.10
2018-04-02T08:03:42.156Z,13.80
2018-04-02T08:04:42.168Z,11.60
2018-04-02T08:05:42.194Z,11.30
2018-04-02T08:06:42.207Z,10.80
2018-04-02T08:07:42.228Z,11.00
2018-04-02T08:08:42.290Z,11.20
2018-04-02T08:09:42.271Z,11.70
2018-04-02T08:10:42.277Z,12.50
2018-04-02T08:11:42.296Z,11.00
2018-04-02T08:12:42.312Z,11.30
2018-04-02T08:13:42.331Z,11.50
2018-04-02T08:14:42.356Z,11.50
2018-04-02T08:15:42.362Z,11.40
2018-04-02T08:16:42.382Z,12.00
2018-04-02T08:17:42.402Z,11.50
2018-04-02T08:18:42.417Z,10.90
2018-04-02T08:19:42.437Z,8.50
2018-04-02T08:20:42.453Z,8.70
2018-04-02T08:21:42.474Z,10.70
2018-04-02T08:22:42.485Z,10.40
2018-04-02T08:23:42.508Z,6.40
2018-04-02T08:24:42.545Z,5.40
2018-04-02T08:25:42.545Z,6.50
2018-04-02T08:26:42.591Z,7.00
2018-04-02T08:27:42.578Z,6.80
2018-04-02T08:28:42.600Z,8.80
2018-04-02T08:29:42.619Z,10.00
2018-04-02T08:30:42.646Z,10.10
2018-04-02T08:31:42.651Z,9.20
2018-04-02T08:32:42.684Z,9.10
2018-04-02T08:33:42.686Z,7.50
2018-04-02T08:34:42.714Z,6.80
2018-04-02T08:35:42.726Z,7.20
2018-04-02T08:36:42.751Z,6.40
2018-04-02T08:37:42.761Z,5.90
2018-04-02T08:38:42.833Z,5.50
2018-04-02T08:39:42.801Z,5.90
2018-04-02T08:40:42.815Z,5.60
2018-04-02T08:41:42.838Z,6.00
2018-04-02T08:42:42.853Z,5.70
2018-04-02T08:43:42.868Z,6.60
2018-04-02T08:44:42.893Z,6.60
2018-04-02T08:45:42.916Z,6.90
2018-04-02T08:46:42.937Z,6.90
2018-04-02T08:47:42.954Z,7.00
2018-04-02T08:48:42.981Z,6.50
2018-04-02T08:49:42.984Z,6.00
2018-04-02T08:50:43.007Z,6.50
2018-04-02T08:51:43.023Z,6.30
2018-04-02T08:52:43.040Z,6.20
2018-04-02T08:53:43.062Z,6.10
2018-04-02T08:54:43.080Z,5.70
2018-04-02T08:55:43.098Z,5.90
2018-04-02T08:56:43.116Z,5.90
2018-04-02T08:57:43.142Z,6.00
2018-04-02T08:58:43.158Z,5.50
2018-04-02T08:59:43.171Z,5.90
2018-04-02T09:00:43.221Z,6.40
2018-04-02T09:01:43.212Z,6.50
2018-04-02T09:02:43.229Z,6.00
2018-04-02T09:03:43.250Z,6.50
2018-04-02T09:04:43.272Z,6.50
2018-04-02T09:05:43.285Z,6.50
2018-04-02T09:06:43.305Z,6.30
2018-04-02T09:07:43.322Z,6.60
2018-04-02T09:08:43.340Z,7.00
2018-04-02T09:09:43.361Z,6.30
2018-04-02T09:10:43.378Z,6.10
2018-04-02T09:11:43.400Z,5.90
2018-04-02T09:12:43.422Z,5.60
2018-04-02T09:13:43.441Z,5.20
2018-04-02T09:14:43.455Z,5.40
2018-04-02T09:15:43.474Z,5.10
2018-04-02T09:16:43.503Z,5.30
2018-04-02T09:17:43.516Z,5.30
2018-04-02T09:18:43.538Z,5.80
2018-04-02T09:19:43.558Z,5.30
2018-04-02T09:20:43.575Z,5.40
2018-04-02T09:21:43.600Z,5.30
2018-04-02T09:22:43.614Z,5.90
2018-04-02T09:23:43.631Z,6.20
2018-04-02T09:24:43.679Z,6.30
2018-04-02T09:25:43.669Z,5.40
2018-04-02T09:26:43.689Z,5.50
2018-04-02T09:27:43.708Z,5.40
2018-04-02T09:28:43.728Z,5.00
2018-04-02T09:29:43.754Z,4.80
2018-04-02T09:30:43.764Z,5.40
2018-04-02T09:31:43.787Z,5.50
2018-04-02T09:32:43.806Z,5.40
2018-04-02T09:33:43.828Z,5.40
2018-04-02T09:34:43.839Z,5.40
2018-04-02T09:35:43.859Z,5.50
2018-04-02T09:36:43.881Z,5.50
2018-04-02T09:37:43.902Z,5.90
2018-04-02T09:38:43.923Z,5.40
2018-04-02T09:39:43.933Z,5.50
2018-04-02T09:40:43.956Z,5.50
2018-04-02T09:41:43.978Z,5.70
2018-04-02T09:42:43.995Z,5.20
2018-04-02T09:43:44.014Z,4.60
2018-04-02T09:44:44.029Z,4.90
2018-04-02T09:45:44.047Z,4.90
2018-04-02T09:46:44.068Z,5.00
2018-04-02T09:47:44.135Z,4.30
2018-04-02T09:48:44.107Z,3.80
2018-04-02T09:49:44.129Z,3.60
2018-04-02T09:50:44.151Z,3.60
2018-04-02T09:51:44.167Z,4.00
2018-04-02T09:52:44.182Z,4.30
2018-04-02T09:53:44.203Z,4.60
2018-04-02T09:54:44.243Z,4.00
2018-04-02T09:55:44.238Z,4.20
2018-04-02T09:56:44.267Z,4.40
2018-04-02T09:57:44.278Z,4.70
2018-04-02T09:58:44.297Z,4.70
2018-04-02T09:59:44.321Z,4.30
2018-04-02T10:00:44.337Z,4.40
2018-04-02T10:01:44.359Z,3.50
2018-04-02T10:02:44.372Z,3.80
2018-04-02T10:03:44.391Z,3.80
2018-04-02T10:04:44.568Z,4.10
2018-04-02T10:05:44.431Z,4.50
2018-04-02T10:06:44.451Z,4.60
2018-04-02T10:07:44.470Z,4.90
2018-04-02T10:08:44.492Z,4.30
2018-04-02T10:09:44.526Z,4.40
2018-04-02T10:10:44.528Z,5.10
2018-04-02T10:11:44.547Z,4.70
2018-04-02T10:12:44.566Z,4.60
2018-04-02T10:13:44.591Z,4.50
2018-04-02T10:14:44.605Z,4.30
2018-04-02T10:15:44.621Z,4.50
2018-04-02T10:16:44.646Z,4.00
2018-04-02T10:17:44.661Z,3.90
2018-04-02T10:18:44.679Z,3.70
2018-04-02T10:19:44.697Z,4.00
2018-04-02T10:20:44.766Z,4.10
2018-04-02T10:21:44.783Z,4.20
2018-04-02T10:22:44.757Z,4.30
2018-04-02T10:23:44.782Z,4.20
2018-04-02T10:24:44.801Z,4.40
2018-04-02T10:25:44.814Z,4.50
2018-04-02T10:26:44.834Z,4.10
2018-04-02T10:27:44.850Z,4.50
2018-04-02T10:28:44.876Z,4.30
2018-04-02T10:29:44.963Z,4.20
2018-04-02T10:30:44.937Z,4.30
2018-04-02T10:31:44.929Z,4.00
2018-04-02T10:32:44.945Z,3.50
2018-04-02T10:33:44.966Z,3.60
2018-04-02T10:34:44.996Z,3.70
2018-04-02T10:35:45.005Z,4.00
2018-04-02T10:36:45.025Z,4.60
2018-04-02T10:37:45.042Z,4.30
2018-04-02T10:38:45.074Z,4.40
2018-04-02T10:39:45.085Z,3.70
2018-04-02T10:40:45.100Z,4.60
2018-04-02T10:41:45.122Z,4.90
2018-04-02T10:42:45.140Z,4.50
2018-04-02T10:43:45.175Z,4.90
2018-04-02T10:44:45.179Z,4.80
2018-04-02T10:45:45.200Z,4.50
2018-04-02T10:46:45.226Z,4.20
2018-04-02T10:47:45.244Z,4.40
2018-04-02T10:48:45.277Z,4.70
2018-04-02T10:49:45.278Z,5.00
2018-04-02T10:50:45.299Z,5.50
2018-04-02T10:51:45.319Z,5.20
2018-04-02T10:52:45.344Z,5.10
2018-04-02T10:53:45.361Z,5.70
2018-04-02T10:54:45.378Z,5.60
2018-04-02T10:55:45.400Z,5.40
2018-04-02T10:56:45.422Z,6.00
2018-04-02T10:57:45.441Z,5.60
2018-04-02T10:58:45.466Z,5.70
2018-04-02T10:59:45.525Z,4.60
2018-04-02T11:00:45.506Z,4.50
2018-04-02T11:01:45.524Z,4.90
2018-04-02T11:02:45.544Z,4.90
2018-04-02T11:03:45.569Z,4.90
2018-04-02T11:04:45.585Z,5.30
2018-04-02T11:05:45.660Z,5.10
2018-04-02T11:06:45.628Z,5.20
2018-04-02T11:07:45.648Z,5.10
2018-04-02T11:08:45.683Z,5.20
2018-04-02T11:09:45.711Z,5.50
2018-04-02T11:10:45.728Z,5.60
2018-04-02T11:11:45.743Z,4.90
2018-04-02T11:12:45.779Z,4.90
2018-04-02T11:13:45.793Z,5.60
2018-04-02T11:14:45.818Z,5.80
2018-04-02T11:15:45.857Z,5.50
2018-04-02T11:16:45.872Z,5.40
2018-04-02T11:17:45.904Z,5.20
2018-04-02T11:18:45.917Z,5.40
2018-04-02T11:19:45.951Z,4.80
2018-04-02T11:20:45.975Z,4.90
2018-04-02T11:21:46.003Z,5.20
2018-04-02T11:22:46.034Z,5.80
2018-04-02T11:23:46.106Z,5.20
2018-04-02T11:24:46.083Z,5.30
2018-04-02T11:25:46.116Z,5.60
2018-04-02T11:26:46.142Z,6.20
2018-04-02T11:27:46.177Z,5.90
2018-04-02T11:28:46.201Z,6.00
2018-04-02T11:29:46.229Z,5.90
2018-04-02T11:30:46.258Z,5.80
2018-04-02T11:31:46.287Z,5.90
2018-04-02T11:32:46.314Z,5.70
2018-04-02T11:33:46.346Z,5.40
2018-04-02T11:34:46.373Z,5.40
2018-04-02T11:35:46.454Z,5.60
2018-04-02T11:36:46.436Z,5.70
2018-04-02T11:37:46.461Z,5.90
2018-04-02T11:38:46.499Z,5.40
2018-04-02T11:39:46.551Z,6.10
2018-04-02T11:40:46.551Z,5.60
2018-04-02T11:41:46.587Z,6.00
2018-04-02T11:42:46.616Z,5.60
2018-04-02T11:43:46.646Z,5.90
2018-04-02T11:44:46.676Z,5.50
2018-04-02T11:45:46.710Z,5.30
2018-04-02T11:46:46.737Z,5.60
2018-04-02T11:47:46.767Z,6.10
2018-04-02T11:48:46.816Z,6.30
2018-04-02T11:49:46.838Z,5.60
2018-04-02T11:50:46.862Z,5.90
2018-04-02T11:51:46.898Z,6.00
2018-04-02T11:52:46.926Z,6.00
2018-04-02T11:53:46.956Z,6.20
2018-04-02T11:54:46.996Z,6.40
2018-04-02T11:55:47.038Z,5.90
2018-04-02T11:56:47.060Z,5.80
2018-04-02T11:57:47.090Z,5.50
2018-04-02T11:58:47.124Z,5.50
2018-04-02T11:59:47.150Z,5.40
2018-04-02T12:00:47.185Z,5.50
2018-04-02T12:01:47.228Z,5.80
2018-04-02T12:02:47.261Z,5.50
2018-04-02T12:03:47.281Z,5.50
2018-04-02T12:04:47.323Z,5.30
2018-04-02T12:05:47.357Z,5.00
2018-04-02T12:06:47.390Z,4.80
2018-04-02T12:07:47.416Z,4.90
2018-04-02T12:08:47.455Z,5.20
2018-04-02T12:09:47.488Z,5.40
2018-04-02T12:10:47.522Z,5.10
2018-04-02T12:11:47.550Z,5.60
2018-04-02T12:12:47.590Z,4.80
2018-04-02T12:13:47.642Z,5.40
2018-04-02T12:14:47.657Z,5.10
2018-04-02T12:15:47.699Z,5.40
2018-04-02T12:16:47.720Z,5.10
2018-04-02T12:17:47.769Z,5.50
2018-04-02T12:18:47.790Z,5.90
2018-04-02T12:19:47.835Z,5.30
2018-04-02T12:20:47.862Z,5.40
2018-04-02T12:21:47.895Z,5.30
2018-04-02T12:22:47.935Z,5.20
2018-04-02T12:23:47.970Z,5.40
2018-04-02T12:24:48.001Z,5.60
2018-04-02T12:25:48.032Z,5.20
2018-04-02T12:26:48.069Z,5.50
2018-04-02T12:27:48.108Z,5.50
2018-04-02T12:28:48.140Z,5.10
2018-04-02T12:29:48.172Z,5.20
2018-04-02T12:30:48.211Z,5.40
2018-04-02T12:31:48.243Z,5.30
2018-04-02T12:32:48.274Z,5.30
2018-04-02T12:33:48.309Z,5.40
2018-04-02T12:34:48.345Z,5.60
2018-04-02T12:35:48.380Z,5.60
2018-04-02T12:36:48.414Z,5.70
2018-04-02T12:37:48.454Z,5.20
2018-04-02T12:38:48.499Z,5.40
2018-04-02T12:39:48.526Z,5.30
2018-04-02T12:40:48.558Z,5.20
2018-04-02T12:41:48.592Z,5.30
2018-04-02T12:42:48.625Z,5.40
2018-04-02T12:43:48.662Z,5.30
2018-04-02T12:44:48.701Z,5.60
2018-04-02T12:45:48.734Z,5.30
2018-04-02T12:46:48.770Z,5.30
2018-04-02T12:47:48.798Z,5.80
2018-04-02T12:48:48.840Z,5.80
2018-04-02T12:49:48.877Z,5.50
2018-04-02T12:50:48.908Z,6.40
2018-04-02T12:51:48.947Z,5.80
2018-04-02T12:52:48.979Z,5.50
2018-04-02T12:53:49.014Z,5.90
2018-04-02T12:54:49.049Z,5.90
2018-04-02T12:55:49.082Z,5.60
2018-04-02T12:56:49.114Z,5.40
2018-04-02T12:57:49.151Z,5.50
2018-04-02T12:58:49.192Z,6.30
2018-04-02T12:59:49.216Z,5.80
2018-04-02T13:00:49.252Z,5.80
2018-04-02T13:01:49.285Z,5.50
2018-04-02T13:02:49.317Z,6.10
2018-04-02T13:03:49.350Z,6.30